createdAt,value
2019-01-10T00:07:48.998Z,3.23
2019-01-10T00:12:53.285Z,3.60
2019-01-10T00:28:43.172Z,5.53
2019-01-10T00:33:48.146Z,3.60
2019-01-10T00:39:11.709Z,8.37
2019-01-10T00:54:41.316Z,8.00
2019-01-10T01:00:25.035Z,6.00
2019-01-10T01:05:48.664Z,7.23
2019-01-10T01:11:12.375Z,4.70
2019-01-10T01:26:36.592Z,6.03
2019-01-10T01:31:40.813Z,6.30
2019-01-10T01:36:45.035Z,6.57
2019-01-10T01:47:18.402Z,8.83
2019-01-10T01:52:23.043Z,4.53
2019-01-10T02:02:56.507Z,8.90
2019-01-10T02:13:16.673Z,8.00
2019-01-10T02:18:16.969Z,7.27
2019-01-10T02:23:40.257Z,5.63
2019-01-10T02:29:03.556Z,5.83
2019-01-10T02:34:07.784Z,6.63
2019-01-10T02:39:51.427Z,11.13
2019-01-10T02:50:45.079Z,6.53
2019-01-10T03:00:59.221Z,4.90
2019-01-10T03:06:03.451Z,5.23
2019-01-10T03:11:07.684Z,8.10
2019-01-10T03:16:30.993Z,9.30
2019-01-10T03:21:35.353Z,7.20
2019-01-10T03:31:49.842Z,5.70
2019-01-10T03:36:54.113Z,2.70
2019-01-10T03:42:17.417Z,6.23
2019-01-10T03:47:21.650Z,4.43
2019-01-10T03:52:44.944Z,5.63
2019-01-10T03:57:49.180Z,4.10
2019-01-10T04:02:53.413Z,5.27
2019-01-10T04:13:07.998Z,7.97
2019-01-10T04:18:12.221Z,5.70
2019-01-10T04:23:16.555Z,6.97
2019-01-10T04:28:20.799Z,8.47
2019-01-10T04:33:44.106Z,3.77
2019-01-10T04:38:48.336Z,4.67
2019-01-10T04:43:52.580Z,4.10
2019-01-10T04:48:56.821Z,3.87
2019-01-10T04:54:01.067Z,5.90
2019-01-10T05:04:15.347Z,5.73
2019-01-10T05:09:19.979Z,7.40
2019-01-10T05:14:24.204Z,4.93
2019-01-10T05:19:28.724Z,8.67
2019-01-10T05:24:45.292Z,4.23
2019-01-10T05:29:49.884Z,3.13
2019-01-10T05:34:54.423Z,4.00
2019-01-10T05:40:18.015Z,7.47
2019-01-10T05:55:41.703Z,12.03
2019-01-10T06:01:04.957Z,5.83
2019-01-10T06:06:09.204Z,10.07
2019-01-10T06:16:23.032Z,8.13
2019-01-10T06:21:46.351Z,9.97
2019-01-10T06:32:19.057Z,10.07
2019-01-10T06:37:23.320Z,6.03
2019-01-10T06:42:27.578Z,10.83
2019-01-10T06:47:31.833Z,8.27
2019-01-10T06:52:36.076Z,8.07
2019-01-10T07:03:29.012Z,9.87
2019-01-10T07:08:33.239Z,12.93
2019-01-10T07:13:56.539Z,9.40
2019-01-10T07:19:00.790Z,9.67
2019-01-10T07:24:05.026Z,13.33
2019-01-10T07:29:50.074Z,9.90
2019-01-10T07:35:13.894Z,10.27
2019-01-10T07:40:57.817Z,7.37
2019-01-10T07:46:45.728Z,9.63
2019-01-10T07:51:49.977Z,10.30
2019-01-10T07:57:13.588Z,11.53
2019-01-10T08:02:37.131Z,15.53
2019-01-10T08:07:41.378Z,11.43
2019-01-10T08:12:45.619Z,13.57
2019-01-10T08:18:29.556Z,18.90
2019-01-10T08:29:02.935Z,12.87
2019-01-10T08:39:36.459Z,15.37
2019-01-10T08:44:59.806Z,14.70
2019-01-10T09:00:44.501Z,16.93
2019-01-10T09:06:08.363Z,15.17
2019-01-10T09:16:24.139Z,16.20
2019-01-10T09:31:47.872Z,16.83
2019-01-10T09:37:11.272Z,16.00
2019-01-10T09:42:34.565Z,13.27
2019-01-10T09:47:38.801Z,17.77
2019-01-10T09:52:43.102Z,14.77
2019-01-10T09:57:47.398Z,10.20
2019-01-10T10:02:51.635Z,11.03
2019-01-10T10:08:14.963Z,11.13
2019-01-10T10:18:29.148Z,10.13
2019-01-10T10:23:33.390Z,16.20
2019-01-10T10:28:38.052Z,12.33
2019-01-10T10:33:42.277Z,9.93
2019-01-10T10:38:58.527Z,9.60
2019-01-10T10:44:02.765Z,12.77
2019-01-10T10:49:46.618Z,9.27
2019-01-10T10:55:10.121Z,8.53
2019-01-10T11:00:55.531Z,10.23
2019-01-10T11:16:19.923Z,7.50
2019-01-10T11:21:43.471Z,5.83
2019-01-10T11:27:06.767Z,9.87
2019-01-10T11:32:13.408Z,4.30
2019-01-10T11:42:26.342Z,4.50
2019-01-10T11:47:30.613Z,4.43
2019-01-10T11:52:35.246Z,7.40
2019-01-10T11:58:18.869Z,5.53
2019-01-10T12:03:23.143Z,5.40
2019-01-10T12:13:56.408Z,6.43
2019-01-10T12:29:39.844Z,3.60
2019-01-10T12:45:22.231Z,6.63
2019-01-10T12:50:45.537Z,4.20
2019-01-10T12:55:49.773Z,8.83
2019-01-10T13:00:53.996Z,9.27
2019-01-10T13:05:58.237Z,3.43
2019-01-10T13:11:02.564Z,5.20
2019-01-10T13:16:06.876Z,7.10
2019-01-10T13:32:09.002Z,5.93
2019-01-10T13:47:53.677Z,4.70
2019-01-10T13:52:57.995Z,4.90
2019-01-10T13:58:21.500Z,5.23
2019-01-10T14:03:25.778Z,8.60
2019-01-10T14:08:49.091Z,7.37
2019-01-10T14:13:53.310Z,5.70
2019-01-10T14:19:16.630Z,6.77
2019-01-10T14:24:39.901Z,6.33
2019-01-10T14:35:13.543Z,6.90
2019-01-10T14:40:36.852Z,5.60
2019-01-10T14:46:20.893Z,16.53
2019-01-10T14:56:58.061Z,7.50
2019-01-10T15:17:50.668Z,3.47
2019-01-10T15:28:42.873Z,4.47
2019-01-10T15:33:47.110Z,7.03
2019-01-10T15:38:51.379Z,7.37
2019-01-10T15:55:12.505Z,5.73
2019-01-10T16:21:14.587Z,5.07
2019-01-10T16:26:18.925Z,5.73
2019-01-10T16:31:23.155Z,3.07
2019-01-10T16:36:27.391Z,6.57
2019-01-10T16:41:50.600Z,8.13
2019-01-10T16:46:54.839Z,3.50
2019-01-10T16:51:59.068Z,7.43
2019-01-10T16:57:15.466Z,3.00
2019-01-10T17:02:19.693Z,5.17
2019-01-10T17:12:33.781Z,4.23
2019-01-10T17:23:06.942Z,4.17
2019-01-10T17:49:29.355Z,3.97
2019-01-10T17:54:33.735Z,5.07
2019-01-10T17:59:38.229Z,5.53
2019-01-10T18:04:42.830Z,12.17
2019-01-10T18:09:47.061Z,6.27
2019-01-10T18:20:01.404Z,6.87
2019-01-10T18:25:45.177Z,9.90
2019-01-10T18:30:49.483Z,16.50
2019-01-10T18:36:12.890Z,12.57
2019-01-10T18:52:35.175Z,9.23
2019-01-10T18:57:58.499Z,7.73
2019-01-10T19:03:42.188Z,16.27
2019-01-10T19:20:06.013Z,14.23
2019-01-10T19:30:58.983Z,23.47
2019-01-10T19:36:03.220Z,20.33
2019-01-10T19:46:17.186Z,19.40
2019-01-10T19:51:40.490Z,22.77
2019-01-10T19:56:44.722Z,27.70
2019-01-10T20:12:46.247Z,31.30
2019-01-10T20:23:43.636Z,24.53
2019-01-10T20:34:16.918Z,24.03
2019-01-10T20:39:21.159Z,21.47
2019-01-10T20:44:25.470Z,28.80
2019-01-10T20:54:39.368Z,24.10
2019-01-10T21:10:55.621Z,28.63
2019-01-10T21:26:39.666Z,28.57
2019-01-10T21:32:03.007Z,33.13
2019-01-10T21:43:16.424Z,45.33
2019-01-10T21:48:39.748Z,36.67
2019-01-10T21:54:03.320Z,38.03
2019-01-10T21:59:08.981Z,39.50
2019-01-10T22:04:32.282Z,41.20
2019-01-10T22:09:36.551Z,37.07
2019-01-10T22:14:52.591Z,49.17
2019-01-10T22:20:08.360Z,29.93
2019-01-10T22:30:42.802Z,35.20
2019-01-10T22:35:47.113Z,32.80
2019-01-10T22:46:21.598Z,25.63
2019-01-10T22:51:25.887Z,28.00
2019-01-10T23:02:43.933Z,34.17
2019-01-10T23:07:48.554Z,36.17
2019-01-10T23:13:12.018Z,41.90
2019-01-10T23:18:27.797Z,38.47
2019-01-10T23:29:01.361Z,38.67
2019-01-10T23:34:24.747Z,40.67
2019-01-10T23:39:29.014Z,47.00
2019-01-10T23:44:33.423Z,36.43
2019-01-10T23:49:57.123Z,38.40
2019-01-10T23:55:40.809Z,61.33
